Time;durP1;ratioP1;P1;durP2;ratioP2;P2;SDS_P1;SDS_P2;PMS_P1;PMS_P2;Temp;Humidity;BMP_temperature;BMP_pressure;BME280_temperature;BME280_humidity;BME280_pressure;Samples;Min_cycle;Max_cycle;Signal;HPM_P1;HPM_P2
2024/04/04 00:04:40;;;;;;;7.00;1.70;;;;;;;9.28;100.00;99375.22;10519506;28;20066;-41
2024/04/04 00:09:41;;;;;;;6.95;1.50;;;;;;;9.23;100.00;99366.44;10517192;28;20065;-39
2024/04/04 00:14:41;;;;;;;5.88;1.67;;;;;;;9.15;100.00;99361.91;10514564;28;20093;-39
2024/04/04 00:19:43;;;;;;;7.60;1.77;;;;;;;9.12;100.00;99374.88;10513715;28;20048;-38
2024/04/04 00:24:44;;;;;;;6.57;1.50;;;;;;;9.05;100.00;99385.16;10513449;28;20048;-39
2024/04/04 00:29:44;;;;;;;7.03;1.52;;;;;;;9.04;100.00;99373.00;10515683;28;20043;-38
2024/04/04 00:34:45;;;;;;;7.10;1.60;;;;;;;9.01;100.00;99378.13;10512589;28;20074;-38
2024/04/04 00:39:46;;;;;;;6.20;1.42;;;;;;;8.97;100.00;99373.69;10511651;28;20066;-39
2024/04/04 00:44:46;;;;;;;5.15;1.40;;;;;;;8.95;100.00;99380.59;10520707;28;20036;-39
2024/04/04 00:49:47;;;;;;;8.60;1.70;;;;;;;8.87;100.00;99387.34;10529205;28;20051;-39
2024/04/04 00:54:48;;;;;;;6.78;1.70;;;;;;;8.80;100.00;99388.06;10528685;28;20149;-39
2024/04/04 00:59:48;;;;;;;5.55;1.42;;;;;;;8.79;100.00;99388.94;10526237;28;20039;-40
2024/04/04 01:04:49;;;;;;;5.95;1.30;;;;;;;8.65;100.00;99388.59;10526447;28;20520;-39
2024/04/04 01:09:50;;;;;;;8.63;1.50;;;;;;;8.69;100.00;99380.03;10525031;28;20055;-39
2024/04/04 01:14:50;;;;;;;7.13;1.70;;;;;;;8.60;100.00;99379.81;10524485;28;20036;-41
2024/04/04 01:19:52;;;;;;;7.75;1.58;;;;;;;8.56;100.00;99386.66;10523140;28;20036;-37
2024/04/04 01:24:52;;;;;;;11.48;1.70;;;;;;;8.49;100.00;99371.72;10500881;28;20454;-41
2024/04/04 01:29:53;;;;;;;6.65;1.80;;;;;;;8.48;100.00;99375.19;10501072;28;20040;-39
2024/04/04 01:34:53;;;;;;;6.82;1.60;;;;;;;8.37;100.00;99372.28;10499943;28;20164;-39
2024/04/04 01:39:54;;;;;;;6.43;1.80;;;;;;;8.40;100.00;99361.09;10518185;28;20032;-39
2024/04/04 01:44:55;;;;;;;9.85;1.60;;;;;;;8.35;100.00;99358.34;10503446;28;20039;-38
2024/04/04 01:49:55;;;;;;;7.20;1.50;;;;;;;8.36;100.00;99361.81;10517913;28;20089;-44
2024/04/04 01:54:56;;;;;;;7.50;1.52;;;;;;;8.28;100.00;99350.38;10514926;28;20036;-38
2024/04/04 01:59:57;;;;;;;8.20;1.60;;;;;;;8.31;100.00;99345.25;10517262;28;20036;-40
2024/04/04 02:04:57;;;;;;;4.43;1.55;;;;;;;8.32;100.00;99347.84;10503485;28;20036;-39
2024/04/04 02:09:58;;;;;;;7.63;1.58;;;;;;;8.34;100.00;99335.78;10520177;28;20051;-42
2024/04/04 02:14:58;;;;;;;5.25;1.30;;;;;;;8.39;100.00;99330.69;10523529;28;20038;-39
2024/04/04 02:19:59;;;;;;;4.93;1.52;;;;;;;8.43;100.00;99323.81;10518030;28;20036;-39
2024/04/04 02:25:00;;;;;;;5.78;1.80;;;;;;;8.41;100.00;99312.53;10516476;28;20103;-39
2024/04/04 02:30:01;;;;;;;3.83;1.40;;;;;;;8.39;100.00;99312.47;10533275;28;20520;-39
2024/04/04 02:35:04;;;;;;;6.70;1.40;;;;;;;8.43;100.00;99308.22;10516780;28;20071;-39
2024/04/04 02:40:05;;;;;;;8.57;1.70;;;;;;;8.43;100.00;99297.78;10529820;28;20039;-39
2024/04/04 02:45:07;;;;;;;6.88;1.67;;;;;;;8.35;100.00;99289.78;10536847;28;20039;-40
2024/04/04 02:50:08;;;;;;;6.30;1.55;;;;;;;8.35;100.00;99288.06;10533295;28;20032;-39
2024/04/04 02:55:09;;;;;;;5.10;1.40;;;;;;;8.39;100.00;99290.75;10532340;28;20043;-38
2024/04/04 03:00:11;;;;;;;7.50;1.70;;;;;;;8.39;100.00;99272.53;10541371;28;20028;-40
2024/04/04 03:05:11;;;;;;;8.45;1.63;;;;;;;8.41;100.00;99281.28;10545829;28;20047;-38
2024/04/04 03:10:12;;;;;;;7.97;1.52;;;;;;;8.45;100.00;99276.16;10543244;28;20090;-41
2024/04/04 03:15:13;;;;;;;8.55;1.40;;;;;;;8.47;100.00;99279.69;10533488;28;20036;-38
2024/04/04 03:20:13;;;;;;;9.57;1.60;;;;;;;8.51;100.00;99258.06;10525151;28;20044;-38
2024/04/04 03:25:14;;;;;;;6.35;1.40;;;;;;;8.54;100.00;99260.75;10522020;28;20125;-38
2024/04/04 03:30:15;;;;;;;6.00;1.50;;;;;;;8.56;100.00;99253.84;10522851;28;20050;-40
2024/04/04 03:35:15;;;;;;;8.13;1.58;;;;;;;8.58;100.00;99243.47;10520318;28;20096;-39
2024/04/04 03:40:16;;;;;;;6.70;1.70;;;;;;;8.59;100.00;99233.09;10522578;28;20040;-39
2024/04/04 03:45:17;;;;;;;4.32;1.45;;;;;;;8.64;100.00;99238.38;10501578;28;20578;-40
2024/04/04 03:50:18;;;;;;;3.78;1.48;;;;;;;8.62;100.00;99226.16;10520574;28;20036;-39
2024/04/04 03:55:18;;;;;;;5.63;1.50;;;;;;;8.62;100.00;99226.16;10516214;28;20032;-39
2024/04/04 04:00:19;;;;;;;4.55;1.45;;;;;;;8.60;100.00;99218.34;10520882;28;20040;-36
2024/04/04 04:05:19;;;;;;;5.78;1.52;;;;;;;8.59;100.00;99213.94;10512983;28;20453;-41
2024/04/04 04:10:21;;;;;;;5.25;1.77;;;;;;;8.54;100.00;99210.41;10511771;28;20045;-42
2024/04/04 04:15:22;;;;;;;9.13;2.00;;;;;;;8.52;100.00;99206.88;10530978;28;20040;-39
2024/04/04 04:25:41;;;;;;;5.78;1.70;;;;;;;8.51;100.00;99202.50;10511797;28;20047;-39
2024/04/04 04:30:42;;;;;;;8.13;1.85;;;;;;;8.52;100.00;99196.44;10527988;28;20040;-41
2024/04/04 04:35:43;;;;;;;8.73;2.08;;;;;;;8.54;100.00;99195.63;10525281;28;20044;-41
2024/04/04 04:40:44;;;;;;;5.65;1.92;;;;;;;8.55;100.00;99186.97;10526269;28;20039;-39
2024/04/04 04:45:44;;;;;;;6.18;1.90;;;;;;;8.55;100.00;99173.94;10525638;28;20043;-38
2024/04/04 04:50:45;;;;;;;5.95;1.83;;;;;;;8.59;100.00;99180.09;10526008;28;20036;-39
2024/04/04 04:55:49;;;;;;;6.95;1.80;;;;;;;8.62;100.00;99182.75;10519965;28;20036;-39
2024/04/04 05:00:51;;;;;;;4.68;1.95;;;;;;;8.60;100.00;99172.34;10523462;28;20039;-39
2024/04/04 05:05:52;;;;;;;6.63;1.90;;;;;;;8.63;100.00;99181.94;10519088;28;20127;-38
2024/04/04 05:10:53;;;;;;;4.85;2.10;;;;;;;8.59;100.00;99173.19;10521562;28;20500;-39
2024/04/04 05:15:54;;;;;;;5.18;2.17;;;;;;;8.60;100.00;99163.66;10518420;28;20081;-38
2024/04/04 05:21:12;;;;;;;3.83;2.08;;;;;;;8.58;100.00;99160.13;10519181;28;20063;-41
2024/04/04 05:26:13;;;;;;;5.15;2.22;;;;;;;8.57;100.00;99159.25;10518029;28;20046;-38
2024/04/04 05:31:14;;;;;;;7.60;2.47;;;;;;;8.55;100.00;99153.13;10518043;28;20042;-37
2024/04/04 05:36:14;;;;;;;7.18;2.70;;;;;;;8.57;100.00;99148.84;10512845;28;20028;-40
2024/04/04 05:41:15;;;;;;;9.40;2.40;;;;;;;8.57;100.00;99138.41;10508123;28;20374;-37
2024/04/04 05:46:16;;;;;;;5.10;2.35;;;;;;;8.60;100.00;99137.59;10502735;28;20513;-37
2024/04/04 05:51:17;;;;;;;6.70;2.55;;;;;;;8.63;100.00;99140.28;10509861;28;20044;-39
2024/04/04 05:56:17;;;;;;;6.55;2.67;;;;;;;8.69;100.00;99129.06;10504417;28;20067;-39
2024/04/04 06:01:18;;;;;;;6.60;2.78;;;;;;;8.74;100.00;99120.50;10521287;28;20042;-39
2024/04/04 06:06:18;;;;;;;5.47;2.90;;;;;;;8.83;100.00;99114.59;10517376;28;20119;-40
2024/04/04 06:11:19;;;;;;;7.75;3.53;;;;;;;8.89;100.00;99108.63;10526230;28;20040;-39
2024/04/04 06:16:20;;;;;;;5.70;3.53;;;;;;;8.93;100.00;99107.81;10524984;28;20405;-40
2024/04/04 06:21:20;;;;;;;8.43;4.43;;;;;;;8.99;100.00;99097.50;10520449;28;20085;-39
2024/04/04 06:26:25;;;;;;;7.15;3.97;;;;;;;9.05;100.00;99082.84;10519425;28;20608;-40
2024/04/04 06:31:26;;;;;;;8.93;4.15;;;;;;;9.13;100.00;99079.47;10520846;28;20050;-39
2024/04/04 06:36:27;;;;;;;8.70;3.60;;;;;;;9.23;100.00;99070.97;10521916;28;20036;-44
2024/04/04 06:41:27;;;;;;;5.32;3.05;;;;;;;9.33;100.00;99075.47;10519554;28;20486;-40
2024/04/04 06:46:29;;;;;;;7.55;3.08;;;;;;;9.39;100.00;99065.16;10518694;28;20040;-40
2024/04/04 06:51:29;;;;;;;5.18;3.28;;;;;;;9.45;100.00;99070.47;10517991;28;20397;-40
2024/04/04 06:56:30;;;;;;;6.35;2.80;;;;;;;9.49;100.00;99060.94;10508809;28;20032;-40
2024/04/04 07:01:31;;;;;;;6.70;2.88;;;;;;;9.52;100.00;99063.59;10522911;28;20051;-42
2024/04/04 07:06:37;;;;;;;7.38;2.90;;;;;;;9.55;100.00;99063.66;10462755;28;20068;-38
2024/04/04 07:11:39;;;;;;;7.50;2.83;;;;;;;9.58;100.00;99066.31;10476335;28;20595;-38
2024/04/04 07:16:44;;;;;;;6.88;2.75;;;;;;;9.56;100.00;99062.78;10474613;28;20048;-36
2024/04/04 07:21:49;;;;;;;6.07;2.75;;;;;;;9.55;100.00;99061.03;10499774;28;21275;-40
2024/04/04 07:26:49;;;;;;;5.57;2.95;;;;;;;9.59;100.00;99067.19;10563654;28;20040;-39
2024/04/04 07:31:50;;;;;;;5.03;2.90;;;;;;;9.61;100.00;99062.84;10557486;28;20043;-39
2024/04/04 07:36:52;;;;;;;4.18;2.42;;;;;;;9.63;100.00;99059.41;10555757;28;20043;-40
2024/04/04 07:41:53;;;;;;;6.32;2.70;;;;;;;9.66;100.00;99055.97;10527569;28;20527;-38
2024/04/04 07:46:54;;;;;;;6.15;2.78;;;;;;;9.69;100.00;99053.41;10575136;28;20068;-37
2024/04/04 07:51:55;;;;;;;5.45;2.47;;;;;;;9.73;100.00;99048.22;10574034;28;20040;-39
2024/04/04 07:56:55;;;;;;;7.13;2.55;;;;;;;9.80;100.00;99040.50;10567096;28;20035;-41
2024/04/04 08:01:56;;;;;;;4.25;2.30;;;;;;;9.91;100.00;99041.53;10578264;27;20034;-37
2024/04/04 08:06:57;;;;;;;7.63;2.55;;;;;;;10.07;100.00;99030.41;10570316;28;20040;-40
2024/04/04 08:11:57;;;;;;;5.20;2.40;;;;;;;10.22;100.00;99038.44;10568182;28;20035;-42
2024/04/04 08:16:59;;;;;;;6.60;2.45;;;;;;;10.29;100.00;99026.34;10569537;28;20405;-39
2024/04/04 08:21:59;;;;;;;7.95;2.10;;;;;;;10.31;100.00;99029.88;10566759;28;20050;-41
2024/04/04 08:27:00;;;;;;;3.22;1.95;;;;;;;10.32;100.00;99028.13;10566869;28;20047;-39
2024/04/04 08:32:02;;;;;;;4.25;1.80;;;;;;;10.36;100.00;99014.25;10563622;28;20055;-42
2024/04/04 08:37:09;;;;;;;3.60;1.90;;;;;;;10.39;100.00;99007.31;10545773;28;20119;-40
2024/04/04 08:42:10;;;;;;;3.35;1.90;;;;;;;10.40;100.00;99018.63;10559739;28;20032;-40
2024/04/04 08:47:11;;;;;;;4.35;1.73;;;;;;;10.37;100.00;99010.75;10559060;28;20044;-41
2024/04/04 08:52:13;;;;;;;4.03;1.60;;;;;;;10.41;100.00;99008.22;10560328;28;20234;-38
2024/04/04 08:57:14;;;;;;;5.65;1.85;;;;;;;10.44;100.00;99008.25;10554335;28;20031;-39
2024/04/04 09:02:14;;;;;;;4.15;1.42;;;;;;;10.47;100.00;99012.63;10552709;28;20426;-39
2024/04/04 09:07:15;;;;;;;3.50;1.58;;;;;;;10.49;100.00;99004.78;10535781;28;20031;-41
2024/04/04 09:12:17;;;;;;;2.88;1.40;;;;;;;10.44;100.00;99005.63;10552692;28;20036;-41
2024/04/04 09:17:19;;;;;;;4.68;1.92;;;;;;;10.43;100.00;99035.22;10554429;28;20051;-38
2024/04/04 09:22:25;;;;;;;4.35;1.90;;;;;;;10.41;100.00;99054.34;10550634;28;20032;-39
2024/04/04 09:27:26;;;;;;;6.25;1.40;;;;;;;10.31;100.00;98988.09;10558602;28;20032;-40
2024/04/04 09:32:27;;;;;;;1.40;1.00;;;;;;;10.19;100.00;99056.66;10551181;28;20046;-40
2024/04/04 09:37:28;;;;;;;3.70;1.30;;;;;;;10.23;100.00;99063.69;10567082;28;20405;-43
2024/04/04 09:42:28;;;;;;;2.70;1.42;;;;;;;10.33;100.00;99063.81;10550235;28;20036;-40
2024/04/04 09:47:29;;;;;;;2.45;1.20;;;;;;;10.44;100.00;99057.00;10567290;28;20039;-38
2024/04/04 09:52:29;;;;;;;3.38;1.20;;;;;;;10.43;100.00;99065.66;10565470;28;20036;-39
2024/04/04 09:57:30;;;;;;;3.63;1.13;;;;;;;10.47;100.00;99064.00;10561194;28;20404;-39
2024/04/04 10:02:37;;;;;;;1.92;1.10;;;;;;;10.47;100.00;99062.25;10530178;28;20050;-41
2024/04/04 10:07:40;;;;;;;2.45;1.10;;;;;;;10.53;100.00;99077.09;10551704;28;20071;-39
2024/04/04 10:12:45;;;;;;;2.58;1.00;;;;;;;10.54;100.00;99090.19;10526041;28;20051;-40
2024/04/04 10:17:55;;;;;;;3.15;1.20;;;;;;;10.61;100.00;99084.16;10560541;28;20031;-39
2024/04/04 10:22:57;;;;;;;1.98;1.00;;;;;;;10.87;100.00;99081.81;10514365;28;20040;-39
2024/04/04 10:28:02;;;;;;;3.05;1.30;;;;;;;11.05;100.00;99088.97;10565654;28;20508;-42
2024/04/04 10:33:07;;;;;;;2.97;1.23;;;;;;;11.04;100.00;99086.34;10565489;28;20046;-41
2024/04/04 10:38:11;;;;;;;2.88;1.25;;;;;;;11.13;100.00;99084.69;10546282;28;20051;-41
2024/04/04 10:43:12;;;;;;;2.20;1.20;;;;;;;11.15;100.00;99095.16;10552073;28;20059;-40
2024/04/04 10:48:12;;;;;;;1.67;1.20;;;;;;;11.19;100.00;99102.16;10561638;28;20043;-41
2024/04/04 10:53:13;;;;;;;2.08;1.00;;;;;;;11.28;100.00;99083.91;10560795;28;20034;-39
2024/04/04 10:58:14;;;;;;;2.47;1.38;;;;;;;11.36;100.00;99089.22;10504750;27;20437;-40
2024/04/04 11:03:14;;;;;;;2.45;1.20;;;;;;;11.47;100.00;99092.78;10551623;28;20043;-38
2024/04/04 11:08:15;;;;;;;1.75;1.00;;;;;;;11.41;100.00;99092.75;10555356;28;20036;-41
2024/04/04 11:13:15;;;;;;;3.10;1.00;;;;;;;11.32;100.00;99077.88;10569795;28;20420;-39
2024/04/04 11:18:17;;;;;;;3.33;1.35;;;;;;;11.41;100.00;99086.63;10574984;28;20039;-39
2024/04/04 11:23:18;;;;;;;2.13;1.10;;;;;;;11.51;100.00;99083.22;10538483;28;20466;-39
2024/04/04 11:28:18;;;;;;;3.15;1.10;;;;;;;11.73;100.00;99087.72;10572116;28;20043;-39
2024/04/04 11:33:19;;;;;;;2.85;1.40;;;;;;;11.85;100.00;99069.53;10570434;28;20032;-38
2024/04/04 11:38:20;;;;;;;3.30;1.30;;;;;;;11.78;100.00;99064.22;10569559;28;20057;-39
2024/04/04 11:43:23;;;;;;;3.35;1.40;;;;;;;11.87;100.00;99082.63;10568279;28;20038;-39
2024/04/04 11:48:23;;;;;;;4.63;1.45;;;;;;;12.03;100.00;99079.22;10565751;28;20047;-39
2024/04/04 11:53:24;;;;;;;2.55;1.23;;;;;;;12.07;100.00;99088.84;10565206;28;20031;-41
2024/04/04 11:58:29;;;;;;;2.33;1.20;;;;;;;12.17;100.00;99091.50;10564765;28;20106;-39
2024/04/04 12:03:30;;;;;;;3.83;1.13;;;;;;;12.45;100.00;99089.88;10565303;28;20425;-39
2024/04/04 12:08:31;;;;;;;4.88;1.10;;;;;;;12.42;100.00;99089.88;10562279;28;20040;-41
2024/04/04 12:13:32;;;;;;;2.70;1.23;;;;;;;12.39;100.00;99100.34;10560734;28;20040;-39
2024/04/04 12:23:52;;;;;;;3.78;1.25;;;;;;;12.32;100.00;99108.16;10542388;28;20513;-39
2024/04/04 12:28:55;;;;;;;3.80;1.30;;;;;;;12.41;100.00;99122.19;10557497;28;20035;-36
2024/04/04 12:33:56;;;;;;;2.97;1.10;;;;;;;12.59;100.00;99111.78;10556364;28;20059;-39
2024/04/04 12:38:57;;;;;;;3.65;1.23;;;;;;;12.70;100.00;99106.56;10558853;28;20040;-41
2024/04/04 12:43:59;;;;;;;4.47;1.17;;;;;;;12.78;100.00;99105.72;10552680;28;20047;-38
2024/04/04 12:49:00;;;;;;;6.82;1.20;;;;;;;12.69;100.00;99115.31;10551401;28;20040;-41
2024/04/04 12:54:03;;;;;;;3.50;1.20;;;;;;;12.66;100.00;99117.91;10548689;28;20104;-37
2024/04/04 12:59:03;;;;;;;4.35;1.52;;;;;;;12.62;100.00;99124.88;10568503;28;20033;-39
2024/04/04 13:04:04;;;;;;;4.82;1.50;;;;;;;12.49;100.00;99128.31;10569222;28;20703;-39
2024/04/04 13:09:05;;;;;;;9.15;1.50;;;;;;;12.47;100.00;99143.19;10568898;28;20528;-38
2024/04/04 13:14:05;;;;;;;6.10;1.40;;;;;;;12.44;100.00;99140.53;10566882;28;20035;-39
2024/04/04 13:19:06;;;;;;;4.50;1.38;;;;;;;12.47;100.00;99159.78;10566888;28;20038;-39
2024/04/04 13:24:07;;;;;;;4.32;1.13;;;;;;;12.54;100.00;99139.72;10565273;28;20028;-36
2024/04/04 13:29:07;;;;;;;4.25;1.10;;;;;;;12.59;100.00;99127.50;10563782;28;20447;-37
2024/04/04 13:34:08;;;;;;;3.63;1.10;;;;;;;12.55;100.00;99134.44;10562848;28;20036;-41
2024/04/04 13:39:16;;;;;;;4.68;1.38;;;;;;;12.57;100.00;99126.63;10563485;28;20408;-38
2024/04/04 13:44:19;;;;;;;6.72;1.40;;;;;;;12.59;100.00;99124.88;10560283;28;20507;-39
2024/04/04 13:49:20;;;;;;;3.55;1.27;;;;;;;12.74;100.00;99127.53;10540878;28;20122;-41
2024/04/04 13:54:21;;;;;;;3.85;1.20;;;;;;;13.05;100.00;99124.13;10559579;28;20039;-37
2024/04/04 13:59:21;;;;;;;3.08;1.20;;;;;;;13.37;100.00;99129.44;10559152;28;20047;-39
2024/04/04 14:04:22;;;;;;;4.43;1.00;;;;;;;13.20;100.00;99117.16;10564504;28;20607;-39
2024/04/04 14:09:23;;;;;;;3.75;1.13;;;;;;;13.45;100.00;99139.06;10563356;28;20510;-42
2024/04/04 14:14:23;;;;;;;6.45;1.30;;;;;;;13.51;100.00;99148.69;10562586;28;20040;-39
2024/04/04 14:19:24;;;;;;;4.63;1.10;;;;;;;13.76;100.00;99144.28;10561259;28;20226;-37
2024/04/04 14:24:25;;;;;;;7.03;1.40;;;;;;;13.62;100.00;99165.31;10541211;28;20089;-40
2024/04/04 14:29:26;;;;;;;4.90;1.40;;;;;;;13.27;100.00;99173.16;10565874;28;20501;-39
2024/04/04 14:34:27;;;;;;;7.55;1.80;;;;;;;12.97;100.00;99177.44;10557618;28;20493;-39
2024/04/04 14:39:28;;;;;;;5.10;1.30;;;;;;;12.64;100.00;99180.81;10557016;28;20092;-41
2024/04/04 14:44:28;;;;;;;8.25;1.83;;;;;;;12.37;100.00;99194.66;10576117;28;20100;-38
2024/04/04 14:49:30;;;;;;;10.23;2.00;;;;;;;12.05;100.00;99220.63;10575051;28;20040;-44
2024/04/04 14:54:31;;;;;;;7.20;1.70;;;;;;;11.76;100.00;99260.50;10549149;28;20134;-39
2024/04/04 14:59:32;;;;;;;7.50;1.73;;;;;;;11.49;100.00;99219.28;10572732;28;20042;-40
2024/04/04 15:04:33;;;;;;;12.55;2.20;;;;;;;11.25;100.00;99258.25;10571637;28;20144;-39
2024/04/04 15:09:34;;;;;;;9.52;2.60;;;;;;;11.27;100.00;99282.69;10537391;28;20523;-39
2024/04/04 15:14:34;;;;;;;5.38;1.90;;;;;;;11.27;100.00;99296.66;10569084;28;20055;-41
2024/04/04 15:19:35;;;;;;;9.25;2.47;;;;;;;11.08;100.00;99279.00;10567846;28;20049;-39
2024/04/04 15:24:36;;;;;;;8.60;2.50;;;;;;;11.18;100.00;99288.69;10568470;28;20035;-38
2024/04/04 15:29:36;;;;;;;8.55;2.30;;;;;;;10.98;100.00;99296.31;10565392;28;20529;-38
2024/04/04 15:34:37;;;;;;;9.40;2.28;;;;;;;10.79;100.00;99310.00;10564596;28;20489;-41
2024/04/04 15:39:38;;;;;;;6.97;2.30;;;;;;;10.72;100.00;99302.91;10563464;28;20048;-41
2024/04/04 15:44:39;;;;;;;7.45;2.60;;;;;;;11.05;100.00;99303.38;10564219;28;20088;-39
2024/04/04 15:49:39;;;;;;;5.38;2.20;;;;;;;10.88;100.00;99304.91;10561341;28;20048;-41
2024/04/04 15:54:40;;;;;;;5.25;2.05;;;;;;;11.04;100.00;99308.59;10559591;28;20039;-40
2024/04/04 15:59:41;;;;;;;6.90;2.10;;;;;;;11.26;100.00;99312.31;10561658;28;20032;-41
2024/04/04 16:04:41;;;;;;;6.07;2.00;;;;;;;11.23;100.00;99315.78;10560842;28;20405;-40
2024/04/04 16:09:43;;;;;;;7.60;1.98;;;;;;;11.07;100.00;99324.31;10556060;28;20528;-40
2024/04/04 16:14:44;;;;;;;5.93;1.85;;;;;;;11.22;100.00;99313.16;10556683;28;20039;-41
2024/04/04 16:19:45;;;;;;;5.35;1.60;;;;;;;11.04;100.00;99316.44;10559510;28;20039;-39
2024/04/04 16:24:45;;;;;;;5.22;1.60;;;;;;;10.92;100.00;99340.66;10551861;28;20040;-39
2024/04/04 16:29:46;;;;;;;5.53;2.13;;;;;;;10.85;100.00;99346.69;10571971;28;20402;-40
2024/04/04 16:34:47;;;;;;;7.18;1.90;;;;;;;10.82;100.00;99338.78;10570886;28;20047;-40
2024/04/04 16:39:48;;;;;;;6.45;2.00;;;;;;;10.80;100.00;99350.94;10569237;28;20043;-39
2024/04/04 16:44:49;;;;;;;9.73;2.10;;;;;;;10.74;100.00;99358.69;10551761;28;20035;-39
2024/04/04 16:49:49;;;;;;;6.72;1.98;;;;;;;10.71;100.00;99349.06;10568183;28;20047;-40
2024/04/04 16:54:50;;;;;;;6.28;2.05;;;;;;;10.61;100.00;99371.56;10566092;28;20500;-39
2024/04/04 16:59:51;;;;;;;6.35;1.80;;;;;;;10.57;100.00;99390.69;10564965;28;20319;-39
2024/04/04 17:04:51;;;;;;;7.00;2.10;;;;;;;10.53;100.00;99401.03;10565122;28;20035;-39
2024/04/04 17:09:53;;;;;;;8.65;1.98;;;;;;;10.53;100.00;99401.03;10562967;28;20054;-40
2024/04/04 17:14:53;;;;;;;9.10;2.20;;;;;;;10.56;100.00;99402.00;10540825;28;20035;-40
2024/04/04 17:19:55;;;;;;;11.18;2.47;;;;;;;10.58;100.00;99405.50;10560127;28;20058;-39
2024/04/04 17:24:56;;;;;;;11.57;2.50;;;;;;;10.57;100.00;99415.94;10561536;28;20039;-39
2024/04/04 17:29:57;;;;;;;13.75;2.70;;;;;;;10.51;100.00;99419.31;10558199;28;20032;-39
2024/04/04 17:34:58;;;;;;;8.45;2.53;;;;;;;10.54;100.00;99431.56;10557073;28;20039;-37
2024/04/04 17:39:58;;;;;;;12.23;3.10;;;;;;;10.51;100.00;99441.94;10558674;28;20043;-39
2024/04/04 17:44:59;;;;;;;12.88;3.00;;;;;;;10.47;100.00;99446.25;10554927;28;20397;-40
2024/04/04 17:50:00;;;;;;;12.68;3.35;;;;;;;10.43;100.00;99462.69;10553269;28;20448;-44
2024/04/04 17:55:00;;;;;;;13.07;3.50;;;;;;;10.36;100.00;99471.28;10555821;28;20039;-40
2024/04/04 18:00:02;;;;;;;13.95;3.40;;;;;;;10.28;100.00;99488.56;10551445;28;20035;-40
2024/04/04 18:05:12;;;;;;;11.93;3.50;;;;;;;10.19;100.00;99497.94;10549722;28;20126;-39
2024/04/04 18:10:14;;;;;;;16.63;4.20;;;;;;;10.11;100.00;99507.34;10551400;28;20062;-40
2024/04/04 18:15:14;;;;;;;11.45;3.67;;;;;;;10.11;100.00;99515.19;10568762;28;20039;-39
2024/04/04 18:20:15;;;;;;;15.38;4.63;;;;;;;10.13;100.00;99515.22;10568135;28;20512;-39
2024/04/04 18:25:19;;;;;;;16.02;4.70;;;;;;;10.15;100.00;99526.59;10566773;28;20032;-42
2024/04/04 18:30:20;;;;;;;15.63;4.85;;;;;;;10.15;100.00;99537.03;10554658;28;20050;-41
2024/04/04 18:35:21;;;;;;;13.55;4.88;;;;;;;10.11;100.00;99548.25;10564300;28;20420;-39
2024/04/04 18:40:21;;;;;;;16.52;4.88;;;;;;;10.13;100.00;99547.44;10563632;28;20036;-38
2024/04/04 18:45:24;;;;;;;18.48;4.82;;;;;;;10.16;100.00;99559.66;10559355;28;20508;-42
2024/04/04 18:50:24;;;;;;;17.10;4.88;;;;;;;10.17;100.00;99571.88;10569508;28;20031;-40
2024/04/04 18:55:25;;;;;;;18.15;4.70;;;;;;;10.17;100.00;99585.81;10568157;28;20081;-42
2024/04/04 19:00:26;;;;;;;15.27;5.05;;;;;;;10.20;100.00;99585.00;10569018;28;20036;-40
2024/04/04 19:05:27;;;;;;;15.30;5.00;;;;;;;10.21;100.00;99592.88;10565484;28;20115;-39
2024/04/04 19:10:28;;;;;;;15.27;4.82;;;;;;;10.22;100.00;99604.19;10566697;28;20040;-39
2024/04/04 19:15:28;;;;;;;16.08;4.60;;;;;;;10.22;100.00;99612.03;10563110;28;20036;-41
2024/04/04 19:20:29;;;;;;;19.80;4.82;;;;;;;10.20;100.00;99616.31;10560105;28;20028;-37
2024/04/04 19:25:29;;;;;;;17.23;4.82;;;;;;;10.19;100.00;99628.50;10560534;28;20517;-39
2024/04/04 19:30:30;;;;;;;18.73;5.10;;;;;;;10.20;100.00;99630.25;10559705;28;20494;-39
2024/04/04 19:35:31;;;;;;;22.60;5.38;;;;;;;10.23;100.00;99626.84;10561204;28;20032;-41
2024/04/04 19:40:31;;;;;;;21.45;6.10;;;;;;;10.21;100.00;99638.97;10556893;28;20505;-40
2024/04/04 19:45:32;;;;;;;24.98;6.18;;;;;;;10.21;100.00;99634.66;10556860;28;20410;-38
2024/04/04 19:50:33;;;;;;;25.83;6.85;;;;;;;10.20;100.00;99637.22;10554807;28;20044;-38
2024/04/04 19:55:33;;;;;;;24.48;6.60;;;;;;;10.23;100.00;99639.91;10561118;28;20039;-40
2024/04/04 20:00:35;;;;;;;30.02;6.55;;;;;;;10.23;100.00;99651.22;10572006;28;20039;-39
2024/04/04 20:05:35;;;;;;;31.45;7.32;;;;;;;10.24;100.00;99662.53;10571274;28;20028;-40
2024/04/04 20:10:36;;;;;;;23.77;6.80;;;;;;;10.25;100.00;99680.00;10571041;28;20505;-41
2024/04/04 20:15:37;;;;;;;20.55;6.30;;;;;;;10.23;100.00;99677.31;10570014;28;20047;-38
2024/04/04 20:20:38;;;;;;;21.10;6.30;;;;;;;10.21;100.00;99665.09;10569028;28;20405;-39
2024/04/04 20:25:40;;;;;;;24.83;5.72;;;;;;;10.15;100.00;99662.38;10567248;28;20040;-38
2024/04/04 20:30:41;;;;;;;24.52;5.93;;;;;;;10.14;100.00;99663.19;10565797;28;20044;-41
2024/04/04 20:35:43;;;;;;;25.35;6.15;;;;;;;10.10;100.00;99677.03;10568451;28;20039;-36
2024/04/04 20:40:44;;;;;;;32.15;7.90;;;;;;;10.11;100.00;99676.19;10562071;28;20032;-39
2024/04/04 20:45:48;;;;;;;31.35;8.10;;;;;;;10.12;100.00;99691.91;10546943;28;20409;-39
2024/04/04 20:50:48;;;;;;;33.15;9.68;;;;;;;10.12;100.00;99698.84;10564226;28;20047;-38
2024/04/04 20:55:49;;;;;;;30.20;9.02;;;;;;;10.12;100.00;99693.63;10561144;28;20036;-40
2024/04/04 21:00:50;;;;;;;35.88;11.38;;;;;;;10.12;100.00;99701.47;10560145;28;20036;-37
2024/04/04 21:05:50;;;;;;;37.63;12.43;;;;;;;10.11;100.00;99704.91;10560595;28;20044;-39
2024/04/04 21:10:51;;;;;;;40.42;12.48;;;;;;;10.09;100.00;99707.50;10557344;28;20504;-36
2024/04/04 21:15:52;;;;;;;38.20;13.02;;;;;;;10.10;100.00;99714.47;10555609;28;20036;-41
2024/04/04 21:20:52;;;;;;;36.80;12.55;;;;;;;10.07;100.00;99717.00;10570951;27;20050;-39
2024/04/04 21:25:53;;;;;;;36.78;12.48;;;;;;;10.06;100.00;99712.63;10554291;28;20027;-39
2024/04/04 21:31:07;;;;;;;28.80;10.23;;;;;;;10.09;100.00;99717.06;10518302;28;20516;-37
2024/04/04 21:36:09;;;;;;;34.00;9.55;;;;;;;10.11;100.00;99731.88;10546574;28;20485;-39
2024/04/04 21:41:09;;;;;;;29.48;8.20;;;;;;;10.11;100.00;99728.41;10562842;28;20063;-38
2024/04/04 21:46:10;;;;;;;30.63;7.72;;;;;;;10.11;100.00;99731.88;10566341;28;20032;-39
2024/04/04 21:51:11;;;;;;;26.75;7.95;;;;;;;10.05;100.00;99741.31;10569474;28;20552;-41
2024/04/04 21:56:11;;;;;;;22.98;6.28;;;;;;;10.06;100.00;99737.88;10568392;28;20088;-39
2024/04/04 22:01:13;;;;;;;22.13;5.43;;;;;;;10.05;100.00;99734.34;10567334;28;20035;-40
2024/04/04 22:06:14;;;;;;;27.52;5.65;;;;;;;9.99;100.00;99736.84;10566235;28;20089;-39
2024/04/04 22:11:14;;;;;;;23.73;4.82;;;;;;;10.00;100.00;99733.38;10547843;28;20105;-39
2024/04/04 22:16:15;;;;;;;19.85;4.50;;;;;;;9.97;100.00;99723.75;10563249;28;20105;-40
2024/04/04 22:21:16;;;;;;;19.83;3.88;;;;;;;9.92;100.00;99725.34;10565793;28;20513;-40
2024/04/04 22:26:16;;;;;;;22.92;4.15;;;;;;;9.86;100.00;99714.75;10569959;28;20036;-41
2024/04/04 22:31:18;;;;;;;24.55;4.40;;;;;;;9.82;100.00;99709.44;10569427;28;20038;-39
2024/04/04 22:36:19;;;;;;;23.73;4.40;;;;;;;9.80;100.00;99712.03;10559598;28;20031;-39
2024/04/04 22:41:20;;;;;;;19.88;3.67;;;;;;;9.83;100.00;99708.59;10566390;28;20035;-39
2024/04/04 22:46:21;;;;;;;24.73;4.75;;;;;;;9.75;100.00;99708.41;10565383;28;20041;-41
2024/04/04 22:51:21;;;;;;;23.05;4.53;;;;;;;9.75;100.00;99714.50;10563681;28;20051;-37
2024/04/04 22:56:22;;;;;;;21.98;3.70;;;;;;;9.74;100.00;99709.28;10548138;28;20605;-38
2024/04/04 23:01:23;;;;;;;25.08;4.45;;;;;;;9.73;100.00;99710.97;10567638;28;20047;-38
2024/04/04 23:06:23;;;;;;;20.58;4.03;;;;;;;9.70;100.00;99715.25;10560682;28;20043;-39
2024/04/04 23:11:24;;;;;;;20.52;4.07;;;;;;;9.68;100.00;99706.50;10559124;28;20048;-40
2024/04/04 23:16:25;;;;;;;21.08;3.90;;;;;;;9.64;100.00;99718.59;10560222;28;20042;-38